Time;durP1;ratioP1;P1;durP2;ratioP2;P2;SDS_P1;SDS_P2;PMS_P1;PMS_P2;Temp;Humidity;BMP_temperature;BMP_pressure;BME280_temperature;BME280_humidity;BME280_pressure;Samples;Min_cycle;Max_cycle;Signal;HPM_P1;HPM_P2
2022/09/01 00:02:20;;;;;;;21.73;16.00;;;;;;;22.88;72.94;99541.22;5086208;28;20503;-68
2022/09/01 00:04:46;;;;;;;27.98;16.25;;;;;;;22.85;73.37;99543.59;5084226;28;20039;-68
2022/09/01 00:07:12;;;;;;;25.58;16.10;;;;;;;22.82;73.35;99547.59;5085340;28;20032;-68
2022/09/01 00:09:39;;;;;;;24.83;15.80;;;;;;;22.87;72.64;99536.06;5086832;28;20209;-68
2022/09/01 00:12:06;;;;;;;20.52;14.70;;;;;;;22.72;73.28;99533.91;5085913;28;20031;-68
2022/09/01 00:14:35;;;;;;;20.85;15.07;;;;;;;22.65;72.49;99527.88;5085170;28;20040;-68
2022/09/01 00:17:05;;;;;;;21.38;15.57;;;;;;;22.40;73.83;99522.88;5084286;28;20604;-68
2022/09/01 00:19:32;;;;;;;23.08;15.15;;;;;;;22.21;74.89;99522.28;5087769;28;20028;-68
2022/09/01 00:21:59;;;;;;;24.00;15.60;;;;;;;22.26;75.09;99533.16;5099274;28;20040;-68
2022/09/01 00:24:25;;;;;;;23.70;16.02;;;;;;;22.40;74.35;99528.28;5103390;28;20044;-68
2022/09/01 00:26:52;;;;;;;26.52;16.95;;;;;;;22.38;74.77;99525.00;5103281;28;20039;-68
2022/09/01 00:29:17;;;;;;;26.02;16.13;;;;;;;22.41;75.36;99526.41;5103471;28;20024;-67
2022/09/01 00:31:43;;;;;;;24.65;16.30;;;;;;;22.31;75.74;99518.94;5103454;28;20028;-68
2022/09/01 00:34:09;;;;;;;25.70;16.38;;;;;;;22.44;75.59;99515.94;5103288;28;20336;-68
2022/09/01 00:36:35;;;;;;;23.55;15.75;;;;;;;22.33;75.86;99526.81;5103252;28;20028;-68
2022/09/01 00:39:00;;;;;;;25.92;18.00;;;;;;;22.42;75.40;99523.44;5103136;28;20040;-68
2022/09/01 00:41:33;;;;;;;27.00;17.25;;;;;;;22.10;77.27;99511.56;5103175;28;20233;-68
2022/09/01 00:44:04;;;;;;;24.95;16.42;;;;;;;22.13;77.91;99520.00;5103405;28;20328;-68
2022/09/01 00:46:41;;;;;;;23.65;17.85;;;;;;;22.12;77.97;99514.84;5103199;28;20333;-68
2022/09/01 00:49:38;;;;;;;27.15;17.88;;;;;;;22.21;77.48;99516.06;5103011;28;20047;-68
2022/09/01 00:52:07;;;;;;;27.92;19.35;;;;;;;21.94;78.73;99505.06;5094320;28;20342;-68
2022/09/01 00:54:36;;;;;;;27.58;18.50;;;;;;;22.12;77.87;99512.97;5102758;28;20093;-68
2022/09/01 00:57:04;;;;;;;30.98;18.75;;;;;;;21.91;78.59;99481.28;5102859;28;20059;-68
2022/09/01 00:59:30;;;;;;;25.67;18.45;;;;;;;22.14;78.15;99500.06;5102755;28;20040;-68
2022/09/01 01:01:57;;;;;;;26.35;17.70;;;;;;;22.15;78.09;99507.09;5102990;28;20032;-68
2022/09/01 01:04:23;;;;;;;23.27;17.63;;;;;;;22.16;77.51;99505.19;5102975;28;20031;-68
2022/09/01 01:06:57;;;;;;;26.05;18.80;;;;;;;22.14;77.58;99512.72;5102826;28;20028;-68
2022/09/01 01:09:24;;;;;;;25.88;17.73;;;;;;;22.17;77.50;99515.75;5102722;28;20322;-68
2022/09/01 01:11:51;;;;;;;25.70;17.45;;;;;;;22.21;77.67;99533.06;5102972;28;20360;-68
2022/09/01 01:14:18;;;;;;;32.88;19.45;;;;;;;22.14;78.08;99539.69;5084016;28;20106;-68
2022/09/01 01:16:45;;;;;;;32.63;20.90;;;;;;;22.05;78.84;99531.16;5081520;28;20082;-68
2022/09/01 01:23:10;;;;;;;30.60;19.65;;;;;;;22.23;78.20;99535.53;5084521;28;20023;-68
2022/09/01 01:25:43;;;;;;;26.13;18.63;;;;;;;22.16;77.33;99540.25;5081914;28;20028;-68
2022/09/01 01:28:13;;;;;;;30.00;20.00;;;;;;;22.20;75.78;99544.09;5085532;28;20028;-68
2022/09/01 01:30:43;;;;;;;28.55;19.58;;;;;;;22.10;76.21;99536.66;5069064;28;20085;-68
2022/09/01 01:33:09;;;;;;;29.42;19.00;;;;;;;21.92;77.06;99532.25;5085558;28;20043;-68
2022/09/01 01:35:36;;;;;;;31.17;19.08;;;;;;;21.91;76.74;99537.88;5082415;28;20031;-68
2022/09/01 01:38:06;;;;;;;29.73;19.15;;;;;;;21.75;77.86;99523.25;5081538;28;20032;-68
2022/09/01 01:40:32;;;;;;;30.20;18.60;;;;;;;21.75;77.79;99535.91;5080615;28;20134;-68
2022/09/01 01:43:00;;;;;;;24.77;18.75;;;;;;;21.71;77.28;99530.19;5082166;28;20042;-68
2022/09/01 01:45:27;;;;;;;22.65;18.00;;;;;;;21.64;77.38;99537.59;5081773;28;20108;-68
2022/09/01 01:47:52;;;;;;;31.10;18.58;;;;;;;21.67;78.09;99529.84;5083956;28;20078;-68
2022/09/01 01:50:24;;;;;;;28.40;18.55;;;;;;;21.71;78.61;99530.19;5084945;28;20028;-68
2022/09/01 01:52:50;;;;;;;26.10;17.65;;;;;;;21.78;78.48;99524.66;5100749;28;20024;-68
2022/09/01 01:55:18;;;;;;;30.40;19.77;;;;;;;21.89;78.15;99523.81;5096722;28;20035;-68
2022/09/01 01:57:49;;;;;;;26.67;18.80;;;;;;;21.82;78.54;99518.56;5081722;28;20031;-68
2022/09/01 02:00:21;;;;;;;28.27;18.90;;;;;;;21.78;79.16;99524.66;5081973;28;20078;-68
2022/09/01 02:02:51;;;;;;;29.80;19.90;;;;;;;21.65;79.49;99521.19;5082191;28;20043;-68
2022/09/01 02:05:30;;;;;;;29.10;18.63;;;;;;;21.78;79.26;99530.06;5082906;28;20052;-68
2022/09/01 02:08:03;;;;;;;31.58;19.45;;;;;;;21.87;78.28;99529.47;5082145;28;20035;-68
2022/09/01 02:10:33;;;;;;;27.02;19.40;;;;;;;21.88;77.66;99533.78;5081342;28;20051;-68
2022/09/01 02:13:06;;;;;;;27.35;18.73;;;;;;;21.83;76.97;99522.88;5083061;28;20024;-68
2022/09/01 02:15:45;;;;;;;24.17;18.55;;;;;;;21.84;77.51;99529.09;5080408;28;20040;-68
2022/09/01 02:18:15;;;;;;;27.85;18.48;;;;;;;21.82;78.08;99532.03;5081687;28;20035;-68
2022/09/01 02:20:41;;;;;;;31.45;20.38;;;;;;;21.56;79.64;99528.00;5081727;28;20021;-68
2022/09/01 02:23:10;;;;;;;28.02;20.10;;;;;;;21.53;79.49;99527.69;5081863;28;20039;-68
2022/09/01 02:25:43;;;;;;;29.02;19.88;;;;;;;21.37;80.16;99525.72;5081323;28;20021;-68
2022/09/01 02:28:14;;;;;;;29.98;19.90;;;;;;;21.54;78.97;99527.44;5083443;28;20319;-68
2022/09/01 02:30:42;;;;;;;28.67;20.30;;;;;;;21.51;79.02;99527.09;5084164;28;20105;-68
2022/09/01 02:33:08;;;;;;;28.42;20.63;;;;;;;21.42;79.69;99526.66;5080769;28;20037;-68
2022/09/01 02:35:36;;;;;;;27.92;19.25;;;;;;;21.59;78.66;99530.22;5081629;28;20041;-68
2022/09/01 02:38:05;;;;;;;32.75;19.92;;;;;;;21.62;78.80;99528.94;5081100;28;20028;-68
2022/09/01 02:40:32;;;;;;;30.02;20.50;;;;;;;21.69;78.36;99524.22;5081053;28;20028;-68
2022/09/01 02:42:59;;;;;;;30.27;19.95;;;;;;;21.61;79.12;99530.00;5080394;28;20028;-68
2022/09/01 02:45:28;;;;;;;33.05;19.60;;;;;;;21.59;79.59;99532.94;5080954;28;20260;-68
2022/09/01 02:47:55;;;;;;;32.47;20.42;;;;;;;21.65;79.50;99528.47;5081202;28;20032;-68
2022/09/01 02:50:23;;;;;;;27.88;19.55;;;;;;;21.68;79.77;99525.28;5080828;28;20029;-68
2022/09/01 02:52:51;;;;;;;30.63;20.50;;;;;;;21.74;79.50;99520.81;5099914;28;20027;-68
2022/09/01 02:55:19;;;;;;;26.95;19.10;;;;;;;21.67;79.84;99518.25;5100199;28;20032;-68
2022/09/01 02:57:47;;;;;;;35.45;20.15;;;;;;;21.73;79.08;99516.47;5084145;28;20112;-68
2022/09/01 03:00:19;;;;;;;31.63;20.58;;;;;;;21.78;79.15;99533.56;5081726;28;20099;-68
2022/09/01 03:02:50;;;;;;;29.50;21.02;;;;;;;21.61;79.85;99520.03;5083056;28;20044;-68
2022/09/01 03:05:18;;;;;;;29.00;21.38;;;;;;;21.26;82.24;99538.97;5082380;28;20032;-68
2022/09/01 03:07:43;;;;;;;30.13;20.77;;;;;;;21.24;82.89;99537.56;5081060;28;20134;-68
2022/09/01 03:10:08;;;;;;;32.08;21.02;;;;;;;21.43;81.47;99538.25;5080456;28;20261;-68
2022/09/01 03:12:34;;;;;;;34.08;20.10;;;;;;;21.44;81.07;99529.09;5079796;28;20012;-68
2022/09/01 03:15:00;;;;;;;28.45;20.33;;;;;;;21.26;81.31;99525.50;5081725;28;20036;-67
2022/09/01 03:17:25;;;;;;;28.70;19.25;;;;;;;21.22;80.78;99526.19;5084667;28;20226;-68
2022/09/01 03:19:51;;;;;;;29.58;18.75;;;;;;;21.20;80.39;99522.91;5085867;28;20210;-68
2022/09/01 03:22:17;;;;;;;29.48;19.33;;;;;;;21.25;79.59;99531.94;5086562;28;20028;-68
2022/09/01 03:24:42;;;;;;;27.02;17.77;;;;;;;21.25;78.92;99521.19;5086112;28;20100;-68
2022/09/01 03:27:10;;;;;;;24.63;17.10;;;;;;;21.12;79.31;99520.59;5085131;28;20077;-68
2022/09/01 03:29:37;;;;;;;24.60;16.13;;;;;;;20.99;79.91;99530.53;5084075;28;20032;-67
2022/09/01 03:32:03;;;;;;;25.92;16.40;;;;;;;20.98;79.88;99528.91;5085514;28;20338;-67
2022/09/01 03:34:33;;;;;;;26.20;17.55;;;;;;;21.03;80.04;99520.13;5085020;28;20044;-68
2022/09/01 03:36:59;;;;;;;24.98;17.95;;;;;;;20.97;80.66;99537.22;5085095;28;20056;-67
2022/09/01 03:39:24;;;;;;;26.88;17.45;;;;;;;20.86;81.48;99528.09;5084618;28;20339;-68
2022/09/01 03:41:50;;;;;;;26.65;17.95;;;;;;;21.06;81.37;99532.28;5085217;28;20079;-68
2022/09/01 03:44:15;;;;;;;27.95;17.02;;;;;;;21.10;81.56;99536.16;5083148;28;20322;-68
2022/09/01 03:46:42;;;;;;;29.67;16.67;;;;;;;21.20;81.11;99536.38;5082930;28;20030;-68
2022/09/01 03:49:14;;;;;;;33.08;17.17;;;;;;;21.10;81.46;99541.53;5084275;28;20095;-68
2022/09/01 03:51:41;;;;;;;36.78;17.65;;;;;;;21.01;81.29;99543.75;5083806;28;20032;-68
2022/09/01 03:54:07;;;;;;;37.70;19.10;;;;;;;20.93;81.92;99530.66;5083953;28;20033;-68
2022/09/01 03:56:33;;;;;;;29.27;17.85;;;;;;;20.90;81.79;99539.19;5084439;28;20071;-68
2022/09/01 03:58:59;;;;;;;32.83;18.23;;;;;;;21.10;81.19;99542.34;5082484;28;20020;-68
2022/09/01 04:01:26;;;;;;;31.10;18.15;;;;;;;21.14;81.30;99537.31;5083707;28;20044;-68
2022/09/01 04:03:52;;;;;;;27.33;18.13;;;;;;;21.13;81.25;99541.06;5083873;28;20029;-68
2022/09/01 04:06:22;;;;;;;26.90;17.88;;;;;;;21.15;81.56;99542.47;5084839;28;20218;-68
2022/09/01 04:08:49;;;;;;;28.92;18.70;;;;;;;21.20;81.18;99552.53;5083866;28;20143;-68
2022/09/01 04:11:22;;;;;;;29.67;18.48;;;;;;;21.30;80.81;99550.91;5082515;28;20074;-68
2022/09/01 04:13:49;;;;;;;34.08;17.65;;;;;;;21.34;80.67;99551.25;5082249;28;20040;-68
2022/09/01 04:19:18;;;;;;;27.73;18.20;;;;;;;21.45;80.02;99555.81;5082875;28;20067;-68
2022/09/01 04:21:46;;;;;;;28.67;17.63;;;;;;;21.54;79.40;99554.38;5083919;28;20031;-68
2022/09/01 04:24:14;;;;;;;34.72;19.85;;;;;;;21.39;80.62;99559.44;5083539;28;20064;-68
2022/09/01 04:26:40;;;;;;;30.90;18.40;;;;;;;21.57;79.85;99561.16;5082349;28;20245;-68
2022/09/01 04:29:07;;;;;;;26.67;18.98;;;;;;;21.53;79.90;99541.16;5082809;28;20230;-67
2022/09/01 04:31:36;;;;;;;22.15;17.08;;;;;;;21.65;78.96;99548.13;5083946;28;20036;-68
2022/09/01 04:34:02;;;;;;;23.42;17.27;;;;;;;21.83;77.76;99543.63;5083477;28;20055;-68
2022/09/01 04:36:32;;;;;;;25.48;16.90;;;;;;;21.75;78.25;99549.41;5084251;28;20033;-68
2022/09/01 04:39:07;;;;;;;30.35;17.50;;;;;;;21.71;78.77;99553.63;5085617;28;20032;-68
2022/09/01 04:41:36;;;;;;;30.15;16.98;;;;;;;21.85;78.18;99550.44;5082979;28;20059;-68
2022/09/01 04:44:03;;;;;;;33.30;17.02;;;;;;;22.04;76.92;99550.28;5081515;28;20074;-68
2022/09/01 04:46:31;;;;;;;27.60;17.65;;;;;;;21.96;77.37;99557.66;5082356;28;20040;-68
2022/09/01 04:48:58;;;;;;;29.00;16.02;;;;;;;21.90;77.95;99547.03;5085028;28;20032;-68
2022/09/01 04:51:26;;;;;;;29.00;17.13;;;;;;;21.94;77.62;99557.09;5083601;28;20025;-68
2022/09/01 04:53:54;;;;;;;28.35;17.83;;;;;;;21.79;78.41;99547.84;5082818;28;20128;-68
2022/09/01 04:56:21;;;;;;;35.40;18.58;;;;;;;21.88;78.53;99549.97;5083869;28;20230;-68
2022/09/01 04:58:48;;;;;;;30.00;19.00;;;;;;;21.52;79.22;99501.78;5082275;28;20104;-68
2022/09/01 05:01:25;;;;;;;30.27;18.23;;;;;;;21.75;79.58;99550.22;5084871;28;20325;-68
2022/09/01 05:04:00;;;;;;;26.13;17.23;;;;;;;21.92;78.87;99547.59;5085714;28;20037;-68
2022/09/01 05:06:27;;;;;;;29.15;17.77;;;;;;;21.85;78.47;99558.53;5084519;28;20036;-68
2022/09/01 05:08:56;;;;;;;30.75;17.73;;;;;;;22.03;78.27;99556.75;5082064;28;20389;-68
2022/09/01 05:11:22;;;;;;;28.40;16.63;;;;;;;22.21;76.84;99565.44;5085770;28;20064;-68
2022/09/01 05:13:49;;;;;;;27.92;17.02;;;;;;;22.49;75.38;99563.75;5083671;28;20042;-68
2022/09/01 05:16:20;;;;;;;30.00;15.88;;;;;;;22.78;74.08;99565.31;5084531;28;20164;-68
2022/09/01 05:18:47;;;;;;;21.10;15.45;;;;;;;23.00;73.07;99559.22;5085948;28;20032;-68
2022/09/01 05:21:16;;;;;;;25.80;15.10;;;;;;;23.34;71.27;99544.59;5083655;28;20066;-68
2022/09/01 05:23:43;;;;;;;23.88;15.77;;;;;;;23.50;69.52;99546.41;5082523;28;20222;-68
2022/09/01 05:26:17;;;;;;;22.98;15.75;;;;;;;23.58;69.61;99544.38;5082963;28;20096;-68
2022/09/01 05:28:45;;;;;;;21.10;14.90;;;;;;;23.60;69.03;99542.25;5064956;28;20379;-68
2022/09/01 05:31:11;;;;;;;28.10;16.02;;;;;;;23.68;69.02;99539.09;5081785;28;20109;-68
2022/09/01 05:33:44;;;;;;;31.25;15.50;;;;;;;23.75;68.68;99547.81;5081528;28;20024;-68
2022/09/01 05:36:10;;;;;;;25.02;14.45;;;;;;;23.81;67.96;99546.81;5082888;28;20188;-68
2022/09/01 05:38:36;;;;;;;23.42;14.15;;;;;;;23.97;67.51;99537.81;5081840;28;20044;-68
2022/09/01 05:41:07;;;;;;;25.92;14.50;;;;;;;24.27;66.66;99548.16;5081970;28;20058;-68
2022/09/01 05:43:34;;;;;;;27.33;13.63;;;;;;;24.47;65.93;99553.75;5080720;28;20029;-68
2022/09/01 05:46:02;;;;;;;22.70;13.90;;;;;;;24.49;64.94;99550.81;5081642;28;20032;-68
2022/09/01 05:48:30;;;;;;;27.30;14.35;;;;;;;24.77;63.20;99555.09;5081708;28;20617;-68
2022/09/01 05:50:58;;;;;;;21.55;13.70;;;;;;;24.75;63.47;99558.06;5081058;28;20104;-68
2022/09/01 05:53:25;;;;;;;21.25;14.07;;;;;;;25.10;62.26;99562.16;5064307;28;20059;-68
2022/09/01 05:55:56;;;;;;;22.08;14.13;;;;;;;25.25;61.64;99564.94;5082204;28;20429;-68
2022/09/01 05:58:26;;;;;;;24.88;13.68;;;;;;;25.07;62.31;99560.78;5082429;28;20040;-68
2022/09/01 06:00:57;;;;;;;23.25;12.45;;;;;;;25.45;61.38;99554.22;5085432;28;20070;-68
2022/09/01 06:03:23;;;;;;;25.65;13.13;;;;;;;25.76;59.73;99554.38;5082084;28;20101;-68
2022/09/01 06:05:51;;;;;;;20.75;12.57;;;;;;;25.93;58.33;99554.16;5082112;28;20037;-69
2022/09/01 06:08:20;;;;;;;21.42;11.80;;;;;;;25.88;57.70;99554.94;5084674;28;20020;-68
2022/09/01 06:10:47;;;;;;;17.27;11.68;;;;;;;26.04;58.25;99556.66;5085167;28;20020;-68
2022/09/01 06:13:14;;;;;;;14.77;11.38;;;;;;;26.49;56.68;99549.69;5080896;28;20226;-68
2022/09/01 06:15:41;;;;;;;20.95;12.25;;;;;;;26.31;57.57;99551.00;5082783;28;20081;-68
2022/09/01 06:18:11;;;;;;;22.38;11.32;;;;;;;26.25;56.76;99551.25;5081807;28;20036;-68
2022/09/01 06:20:42;;;;;;;25.08;11.10;;;;;;;26.30;57.42;99545.84;5065209;28;20395;-69
2022/09/01 06:23:11;;;;;;;18.05;11.52;;;;;;;26.39;56.25;99555.09;5083027;28;20024;-68
2022/09/01 06:25:38;;;;;;;18.70;11.38;;;;;;;26.35;55.85;99548.59;5081718;28;20028;-68
2022/09/01 06:28:07;;;;;;;17.95;11.50;;;;;;;26.75;54.52;99547.78;5081655;28;20025;-68
2022/09/01 06:30:35;;;;;;;18.27;11.68;;;;;;;27.03;53.83;99551.84;5085261;28;20033;-68
2022/09/01 06:33:04;;;;;;;17.85;10.30;;;;;;;27.33;52.16;99548.25;5083171;28;20846;-68
2022/09/01 06:35:31;;;;;;;20.92;9.82;;;;;;;27.52;50.26;99546.56;5085560;28;20028;-68
2022/09/01 06:37:57;;;;;;;21.90;10.60;;;;;;;27.34;49.73;99542.53;5085850;28;20059;-68
2022/09/01 06:40:24;;;;;;;12.35;9.63;;;;;;;27.30;50.31;99546.09;5082328;28;20028;-68
2022/09/01 06:42:51;;;;;;;16.17;9.70;;;;;;;27.61;48.93;99539.47;5081679;28;20059;-68
2022/09/01 06:45:20;;;;;;;22.58;10.60;;;;;;;27.76;48.52;99543.22;5064861;28;20260;-68
2022/09/01 06:47:47;;;;;;;18.50;9.77;;;;;;;28.08;47.71;99540.03;5081180;28;20078;-68
2022/09/01 06:50:14;;;;;;;17.38;10.48;;;;;;;27.97;47.57;99539.28;5081814;28;20039;-68
2022/09/01 06:52:41;;;;;;;27.13;10.20;;;;;;;28.04;47.57;99541.69;5084297;28;20043;-68
2022/09/01 06:55:12;;;;;;;16.67;10.20;;;;;;;28.06;47.72;99536.78;5086981;28;20040;-68
2022/09/01 06:57:47;;;;;;;19.33;10.00;;;;;;;28.15;47.11;99544.09;5086218;28;20048;-68
2022/09/01 07:00:19;;;;;;;17.08;10.02;;;;;;;28.19;47.45;99508.97;5094967;28;20046;-68
2022/09/01 07:02:45;;;;;;;12.02;8.88;;;;;;;28.97;46.01;99543.50;5098577;28;20044;-68
2022/09/01 07:05:12;;;;;;;18.42;10.32;;;;;;;28.75;45.85;99535.78;5097748;28;20270;-69
2022/09/01 07:07:38;;;;;;;15.60;10.02;;;;;;;28.99;45.54;99539.38;5096295;28;20039;-68
2022/09/01 07:10:04;;;;;;;16.88;9.65;;;;;;;29.29;44.98;99542.91;5096958;28;20140;-68
2022/09/01 07:12:30;;;;;;;15.45;9.95;;;;;;;29.18;45.30;99543.03;5097308;28;20040;-68
2022/09/01 07:14:58;;;;;;;17.08;9.43;;;;;;;29.54;44.85;99537.19;5095084;28;20038;-69
2022/09/01 07:17:24;;;;;;;17.23;9.60;;;;;;;29.75;43.50;99541.28;5095372;28;20028;-68
2022/09/01 07:19:49;;;;;;;14.30;9.32;;;;;;;30.32;42.08;99524.94;5096970;28;20032;-68
2022/09/01 07:22:15;;;;;;;14.50;9.52;;;;;;;30.49;41.59;99533.41;5096281;28;20271;-68
2022/09/01 07:24:40;;;;;;;13.15;9.20;;;;;;;30.41;41.62;99534.91;5095141;28;20164;-68
2022/09/01 07:27:08;;;;;;;15.30;9.30;;;;;;;30.02;42.59;99505.16;5077165;28;20039;-68
2022/09/01 07:29:34;;;;;;;12.48;8.55;;;;;;;30.31;42.50;99515.13;5097603;28;20098;-68
2022/09/01 07:32:00;;;;;;;14.57;8.40;;;;;;;30.01;42.12;99521.81;5094348;28;20040;-68
2022/09/01 07:34:27;;;;;;;13.05;9.30;;;;;;;30.00;43.11;99522.91;5095082;28;20371;-68
2022/09/01 07:36:58;;;;;;;14.73;8.70;;;;;;;30.29;40.77;99477.19;5097385;28;20071;-68
2022/09/01 07:39:24;;;;;;;19.27;8.10;;;;;;;30.84;40.80;99523.00;5096072;28;20265;-68
2022/09/01 07:41:50;;;;;;;13.50;8.05;;;;;;;30.62;41.84;99507.25;5096433;28;20039;-68
2022/09/01 07:44:16;;;;;;;13.20;8.00;;;;;;;30.42;40.65;99508.38;5078077;28;20032;-69
2022/09/01 07:46:41;;;;;;;11.02;8.38;;;;;;;30.71;40.41;99508.19;5095664;28;20109;-68
2022/09/01 07:49:07;;;;;;;13.98;8.77;;;;;;;31.28;40.50;99512.38;5095766;28;20031;-68
2022/09/01 07:51:33;;;;;;;15.75;8.73;;;;;;;31.25;39.63;99512.97;5097206;28;20046;-69
2022/09/01 07:54:01;;;;;;;10.77;7.60;;;;;;;31.50;37.93;99506.16;5094818;28;20063;-69
2022/09/01 07:56:29;;;;;;;19.50;8.68;;;;;;;31.68;38.01;99493.47;5095938;28;20032;-68
2022/09/01 07:58:56;;;;;;;21.67;10.70;;;;;;;31.46;38.12;99490.66;5093542;28;20038;-68
2022/09/01 08:01:24;;;;;;;16.40;8.27;;;;;;;31.73;38.38;99505.13;5095120;28;20091;-68
2022/09/01 08:03:56;;;;;;;12.32;8.68;;;;;;;31.85;36.78;99501.88;5094716;28;20050;-69
2022/09/01 08:06:25;;;;;;;11.38;6.90;;;;;;;31.82;36.25;99502.47;5098472;28;20250;-68
2022/09/01 08:08:52;;;;;;;15.70;8.05;;;;;;;31.80;37.96;99496.50;5094338;28;20036;-68
2022/09/01 08:11:23;;;;;;;12.10;7.60;;;;;;;31.91;36.40;99495.16;5095602;28;20348;-69
2022/09/01 08:13:48;;;;;;;11.85;7.10;;;;;;;32.11;35.50;99495.81;5091731;28;20032;-68
2022/09/01 08:16:14;;;;;;;15.80;7.28;;;;;;;31.80;36.44;99492.97;5095435;28;20062;-69
2022/09/01 08:18:41;;;;;;;12.20;7.05;;;;;;;31.33;37.02;99489.56;5076859;28;20024;-68
2022/09/01 08:21:08;;;;;;;14.65;7.15;;;;;;;31.34;37.36;99483.78;5096077;28;20043;-68
2022/09/01 08:23:33;;;;;;;13.68;7.25;;;;;;;31.66;36.93;99482.81;5101574;28;20348;-68
2022/09/01 08:26:05;;;;;;;9.80;7.53;;;;;;;31.97;36.63;99488.44;5083665;28;20099;-68
2022/09/01 08:28:30;;;;;;;11.77;7.50;;;;;;;31.61;36.66;99476.66;5101698;28;20089;-68
2022/09/01 08:30:56;;;;;;;12.40;7.38;;;;;;;31.25;37.36;99485.63;5099380;28;20032;-68
2022/09/01 08:33:21;;;;;;;15.02;7.38;;;;;;;30.91;37.85;99483.22;5095055;28;20148;-68
2022/09/01 08:35:48;;;;;;;14.18;7.80;;;;;;;30.40;39.41;99486.84;5076437;28;20028;-68
2022/09/01 08:38:14;;;;;;;12.25;8.25;;;;;;;30.63;39.42;99481.56;5095484;28;20209;-68
2022/09/01 08:40:41;;;;;;;15.77;7.00;;;;;;;31.07;38.55;99472.78;5093058;28;20043;-68
2022/09/01 08:43:12;;;;;;;12.60;7.15;;;;;;;31.15;37.58;99477.59;5094558;28;20237;-68
2022/09/01 08:45:53;;;;;;;12.02;7.00;;;;;;;30.78;37.92;99471.16;5090699;28;20322;-68
2022/09/01 08:48:27;;;;;;;11.57;6.05;;;;;;;30.22;39.55;99468.56;5093832;28;20356;-68
2022/09/01 08:50:59;;;;;;;13.82;6.65;;;;;;;30.40;38.72;99467.72;5090926;28;20792;-68
2022/09/01 08:53:30;;;;;;;11.95;6.07;;;;;;;30.21;38.93;99464.22;5075456;28;20024;-68
2022/09/01 08:55:57;;;;;;;9.77;6.65;;;;;;;29.82;40.41;99473.50;5096339;28;20074;-68
2022/09/01 08:58:22;;;;;;;13.63;6.22;;;;;;;30.02;40.95;99461.47;5093991;28;20036;-68
2022/09/01 09:00:55;;;;;;;13.73;6.30;;;;;;;29.79;40.88;99454.97;5092881;28;20094;-68
2022/09/01 09:03:52;;;;;;;11.15;5.68;;;;;;;30.02;40.83;99453.28;5091402;28;20098;-68
2022/09/01 09:06:24;;;;;;;12.13;5.95;;;;;;;29.79;41.13;99448.72;5094370;28;20197;-68
2022/09/01 09:08:52;;;;;;;8.68;4.93;;;;;;;29.77;39.64;99445.47;5095336;28;20043;-68
2022/09/01 09:11:57;;;;;;;9.57;5.10;;;;;;;29.79;40.55;99445.97;5091949;28;20032;-68
2022/09/01 09:15:14;;;;;;;12.70;5.88;;;;;;;29.29;41.20;99445.56;5081940;28;20233;-68
2022/09/01 09:17:48;;;;;;;11.52;5.50;;;;;;;29.67;40.55;99429.25;5049927;28;20281;-68
2022/09/01 09:20:13;;;;;;;;;;;;;;;30.05;39.64;99444.50;5093676;28;20405;-69
2022/09/01 09:22:41;;;;;;;17.50;6.10;;;;;;;30.07;39.90;99439.56;5095886;28;19939;-68
2022/09/01 09:25:14;;;;;;;11.82;5.82;;;;;;;30.29;40.86;99430.75;5094057;28;20131;-68
2022/09/01 09:27:45;;;;;;;10.88;5.70;;;;;;;30.58;38.99;99426.97;5091941;28;20056;-68
2022/09/01 09:30:26;;;;;;;12.02;6.15;;;;;;;30.36;40.70;99431.19;5092073;28;20048;-68
2022/09/01 09:33:04;;;;;;;18.10;6.40;;;;;;;30.55;41.21;99431.13;5093753;28;20324;-68
2022/09/01 09:35:42;;;;;;;7.80;6.20;;;;;;;30.84;40.96;99427.31;5075079;28;20041;-69
2022/09/01 09:38:31;;;;;;;11.15;5.88;;;;;;;30.71;38.63;99420.75;5093696;28;20098;-68
2022/09/01 09:41:04;;;;;;;9.70;5.57;;;;;;;30.37;40.48;99426.53;5091966;28;20078;-68
2022/09/01 09:43:34;;;;;;;11.67;6.40;;;;;;;29.66;41.67;99431.16;5095857;28;20085;-68
2022/09/01 09:48:46;;;;;;;10.18;6.35;;;;;;;29.70;42.40;99415.00;5078813;28;20115;-68
2022/09/01 09:51:21;;;;;;;12.77;6.00;;;;;;;29.99;41.09;99401.19;5092324;28;20095;-69
2022/09/01 09:53:47;;;;;;;16.67;6.53;;;;;;;30.03;42.59;99408.50;5092066;28;20032;-68
2022/09/01 09:56:19;;;;;;;14.40;6.57;;;;;;;29.70;43.45;99415.00;5093531;28;20197;-68
2022/09/01 09:58:47;;;;;;;14.60;6.38;;;;;;;29.67;43.33;99410.94;5092294;28;20039;-68
2022/09/01 10:01:22;;;;;;;9.60;6.40;;;;;;;29.63;43.17;99399.00;5092545;28;20100;-68
2022/09/01 10:04:00;;;;;;;14.85;6.45;;;;;;;29.72;43.21;99410.06;5093828;28;20029;-68
2022/09/01 10:06:31;;;;;;;11.93;6.25;;;;;;;29.39;43.37;99401.78;5075217;28;20111;-68
2022/09/01 10:08:58;;;;;;;14.32;6.75;;;;;;;29.55;43.50;99396.94;5091327;28;20333;-69
2022/09/01 10:11:30;;;;;;;10.80;5.88;;;;;;;29.73;43.44;99398.84;5092970;28;20032;-68
2022/09/01 10:13:55;;;;;;;14.45;6.53;;;;;;;29.81;41.83;99395.44;5093019;28;20066;-68
2022/09/01 10:16:31;;;;;;;11.25;6.45;;;;;;;29.75;43.17;99393.91;5091284;28;20024;-68
2022/09/01 10:18:59;;;;;;;13.23;6.28;;;;;;;29.94;43.32;99393.88;5093871;28;20124;-68
2022/09/01 10:21:37;;;;;;;12.45;6.43;;;;;;;29.79;41.70;99391.41;5091862;28;20036;-68
2022/09/01 10:24:34;;;;;;;14.70;6.28;;;;;;;29.67;42.99;99386.41;5075199;28;20203;-68
2022/09/01 10:27:04;;;;;;;12.43;6.38;;;;;;;29.61;43.44;99390.31;5089445;28;20032;-68
2022/09/01 10:29:35;;;;;;;12.88;6.03;;;;;;;29.66;42.21;99368.41;5100115;28;20309;-68
2022/09/01 10:32:07;;;;;;;9.98;5.88;;;;;;;29.73;41.66;99373.47;5101640;28;20039;-68
2022/09/01 10:34:35;;;;;;;15.30;6.82;;;;;;;29.86;43.49;99375.44;5103878;28;20380;-68
2022/09/01 10:37:00;;;;;;;12.45;6.13;;;;;;;29.82;42.37;99367.06;5104392;28;20091;-68
2022/09/01 10:39:26;;;;;;;11.98;5.10;;;;;;;29.71;40.65;99376.50;5103930;28;20062;-68
2022/09/01 10:42:06;;;;;;;11.20;5.25;;;;;;;29.88;40.96;99379.50;5104111;28;20372;-68
2022/09/01 10:44:56;;;;;;;10.20;5.07;;;;;;;29.63;41.76;99373.63;5103990;28;20035;-68
2022/09/01 10:47:28;;;;;;;11.80;5.70;;;;;;;29.74;41.77;99375.91;5092352;28;20095;-68
2022/09/01 10:49:54;;;;;;;10.77;5.88;;;;;;;29.57;41.95;99364.72;5103108;28;20341;-68
2022/09/01 10:52:40;;;;;;;17.73;5.85;;;;;;;29.95;42.13;99368.22;5103436;28;20062;-68
2022/09/01 10:55:13;;;;;;;10.13;4.97;;;;;;;29.80;40.84;99361.09;5103483;28;20035;-68
2022/09/01 10:58:07;;;;;;;12.07;5.05;;;;;;;29.90;40.62;99364.75;5103426;28;20035;-68
2022/09/01 11:00:35;;;;;;;12.98;4.85;;;;;;;29.79;40.38;99359.47;5102407;28;20333;-68
2022/09/01 11:03:10;;;;;;;13.18;4.80;;;;;;;30.02;40.06;99363.19;5085687;28;20069;-68
2022/09/01 11:05:58;;;;;;;12.10;4.75;;;;;;;29.79;40.56;99351.28;5103267;28;20032;-68
2022/09/01 11:08:56;;;;;;;7.88;4.50;;;;;;;30.00;39.84;99357.19;5103522;28;20318;-68
2022/09/01 11:11:42;;;;;;;11.25;4.88;;;;;;;29.99;39.81;99347.38;5103279;28;20309;-68
2022/09/01 11:14:22;;;;;;;8.45;4.20;;;;;;;29.98;36.19;99337.56;5103272;28;20036;-68
2022/09/01 11:17:13;;;;;;;9.93;4.07;;;;;;;29.95;38.55;99351.81;5102073;28;20028;-68
2022/09/01 11:19:57;;;;;;;9.98;4.60;;;;;;;29.92;38.29;99336.03;5103451;28;20046;-68
2022/09/01 11:22:42;;;;;;;12.63;3.80;;;;;;;29.93;38.96;99334.94;5084937;28;20028;-68
2022/09/01 11:25:26;;;;;;;10.43;4.55;;;;;;;30.04;38.39;99333.69;5095897;28;20036;-68
2022/09/01 11:27:51;;;;;;;;;;;;;;;30.20;37.85;99327.97;5095343;28;20291;-68
2022/09/01 11:30:19;;;;;;;10.13;3.55;;;;;;;30.33;38.04;99333.44;5093680;28;20155;-68
2022/09/01 11:32:49;;;;;;;7.75;3.85;;;;;;;29.96;37.86;99325.34;5096859;28;20069;-68
2022/09/01 11:35:21;;;;;;;10.98;4.38;;;;;;;30.14;36.42;99319.84;5094764;28;20074;-68
2022/09/01 11:37:54;;;;;;;9.63;4.40;;;;;;;30.35;37.63;99316.75;5094171;28;20027;-68
2022/09/01 11:40:29;;;;;;;7.40;3.85;;;;;;;30.45;37.27;99319.28;5096213;28;20039;-68
2022/09/01 11:42:57;;;;;;;10.98;4.28;;;;;;;30.15;37.57;99321.47;5097417;28;20036;-68
2022/09/01 11:45:31;;;;;;;10.50;4.10;;;;;;;30.21;38.19;99314.00;5078044;28;20032;-68